createdAt,value
2019-02-24T00:01:50.721Z,69.31
2019-02-24T00:05:52.672Z,69.34
2019-02-24T00:09:55.196Z,69.07
2019-02-24T00:13:58.239Z,69.10
2019-02-24T00:18:00.843Z,70.11
2019-02-24T00:22:03.084Z,69.75
2019-02-24T00:26:05.241Z,69.74
2019-02-24T00:30:08.876Z,69.94
2019-02-24T00:34:11.054Z,70.19
2019-02-24T00:38:12.971Z,70.10
2019-02-24T00:42:15.387Z,70.34
2019-02-24T00:46:18.105Z,70.27
2019-02-24T00:50:20.445Z,70.21
2019-02-24T00:54:22.353Z,69.91
2019-02-24T00:58:24.384Z,70.08
2019-02-24T01:02:26.303Z,70.41
2019-02-24T01:06:28.221Z,70.49
2019-02-24T01:10:30.143Z,70.50
2019-02-24T01:14:32.064Z,70.65
2019-02-24T01:18:33.991Z,70.70
2019-02-24T01:22:35.913Z,70.92
2019-02-24T01:26:37.884Z,71.41
2019-02-24T01:30:40.780Z,71.05
2019-02-24T01:34:42.702Z,71.03
2019-02-24T01:38:44.625Z,70.88
2019-02-24T01:42:46.544Z,71.13
2019-02-24T01:46:48.449Z,70.45
2019-02-24T01:50:50.365Z,70.20
2019-02-24T01:54:52.288Z,70.27
2019-02-24T01:58:54.210Z,70.06
2019-02-24T02:02:56.126Z,70.16
2019-02-24T02:06:58.034Z,70.73
2019-02-24T02:10:59.956Z,70.97
2019-02-24T02:15:01.873Z,71.51
2019-02-24T02:19:04.775Z,71.72
2019-02-24T02:23:06.701Z,71.77
2019-02-24T02:27:08.609Z,71.31
2019-02-24T02:31:10.532Z,71.25
2019-02-24T02:35:13.425Z,71.37
2019-02-24T02:39:15.384Z,71.15
2019-02-24T02:43:17.763Z,71.46
2019-02-24T02:47:19.666Z,72.05
2019-02-24T02:51:21.628Z,71.85
2019-02-24T02:55:23.539Z,71.80
2019-02-24T02:59:25.501Z,71.77
2019-02-24T03:03:27.514Z,71.82
2019-02-24T03:07:31.054Z,71.92
2019-02-24T03:11:32.975Z,71.71
2019-02-24T03:15:35.005Z,71.89
2019-02-24T03:19:36.931Z,72.14
2019-02-24T03:23:38.853Z,72.38
2019-02-24T03:27:40.768Z,72.10
2019-02-24T03:31:42.681Z,72.13
2019-02-24T03:35:44.586Z,71.99
2019-02-24T03:39:46.501Z,72.56
2019-02-24T03:43:48.418Z,72.63
2019-02-24T03:47:50.342Z,72.32
2019-02-24T03:51:52.261Z,72.41
2019-02-24T03:55:54.550Z,72.39
2019-02-24T03:59:56.472Z,72.58
2019-02-24T04:03:58.466Z,72.98
2019-02-24T04:08:00.374Z,72.99
2019-02-24T04:12:02.292Z,72.92
2019-02-24T04:16:07.770Z,72.71
2019-02-24T04:20:09.688Z,73.28
2019-02-24T04:24:11.617Z,73.46
2019-02-24T04:28:13.531Z,73.11
2019-02-24T04:32:15.457Z,72.87
2019-02-24T04:36:17.384Z,72.70
2019-02-24T04:40:19.300Z,72.95
2019-02-24T04:44:21.216Z,73.33
2019-02-24T04:48:23.129Z,73.37
2019-02-24T04:52:25.184Z,73.25
2019-02-24T04:56:27.085Z,73.23
2019-02-24T05:00:29.025Z,73.26
2019-02-24T05:04:31.040Z,73.93
2019-02-24T05:08:32.934Z,73.46
2019-02-24T05:12:34.859Z,73.95
2019-02-24T05:16:52.707Z,73.95
2019-02-24T05:20:54.639Z,73.50
2019-02-24T05:24:56.568Z,74.09
2019-02-24T05:28:58.469Z,74.12
2019-02-24T05:33:00.388Z,74.10
2019-02-24T05:37:02.292Z,73.82
2019-02-24T05:41:04.243Z,74.07
2019-02-24T05:45:07.087Z,74.37
2019-02-24T05:49:08.971Z,74.51
2019-02-24T05:53:10.996Z,74.49
2019-02-24T05:57:12.910Z,74.17
2019-02-24T06:01:15.061Z,74.31
2019-02-24T06:05:16.987Z,74.37
2019-02-24T06:09:18.986Z,74.45
2019-02-24T06:13:21.061Z,75.11
2019-02-24T06:17:23.160Z,74.79
2019-02-24T06:21:25.103Z,74.33
2019-02-24T06:25:27.047Z,75.05
2019-02-24T06:29:29.223Z,74.98
2019-02-24T06:33:31.169Z,74.40
2019-02-24T06:37:33.090Z,74.58
2019-02-24T06:41:35.032Z,74.80
2019-02-24T06:45:36.950Z,74.96
2019-02-24T06:49:38.856Z,75.31
2019-02-24T06:53:40.778Z,75.21
2019-02-24T06:57:42.693Z,75.62
2019-02-24T07:01:44.620Z,75.57
2019-02-24T07:05:46.528Z,75.54
2019-02-24T07:09:48.471Z,75.82
2019-02-24T07:13:50.397Z,75.82
2019-02-24T07:17:52.320Z,75.86
2019-02-24T07:21:54.244Z,75.95
2019-02-24T07:25:56.158Z,75.32
2019-02-24T07:29:59.059Z,75.02
2019-02-24T07:34:01.364Z,74.49
2019-02-24T07:38:03.340Z,74.45
2019-02-24T07:42:05.357Z,75.07
2019-02-24T07:46:07.308Z,74.17
2019-02-24T07:50:10.251Z,72.96
2019-02-24T07:54:12.172Z,72.21
2019-02-24T07:58:15.123Z,72.19
2019-02-24T08:02:17.214Z,72.22
2019-02-24T08:06:19.123Z,71.65
2019-02-24T08:10:21.056Z,69.87
2019-02-24T08:14:22.993Z,68.26
2019-02-24T08:18:25.020Z,67.11
2019-02-24T08:22:26.955Z,67.24
2019-02-24T08:26:28.866Z,67.39
2019-02-24T08:30:30.831Z,66.14
2019-02-24T08:34:32.754Z,64.88
2019-02-24T08:38:34.690Z,64.83
2019-02-24T08:42:36.637Z,64.16
2019-02-24T08:46:38.540Z,61.36
2019-02-24T08:50:40.463Z,61.16
2019-02-24T08:54:42.396Z,58.52
2019-02-24T08:58:44.319Z,57.30
2019-02-24T09:02:46.258Z,56.36
2019-02-24T09:06:48.156Z,56.71
2019-02-24T09:10:50.090Z,56.70
2019-02-24T09:14:52.003Z,55.40
2019-02-24T09:18:53.935Z,55.32
2019-02-24T09:22:55.830Z,56.26
2019-02-24T09:26:57.772Z,53.59
2019-02-24T09:31:01.024Z,51.81
2019-02-24T09:35:03.218Z,52.37
2019-02-24T09:39:05.981Z,53.08
2019-02-24T09:43:07.984Z,52.42
2019-02-24T09:47:09.876Z,51.10
2019-02-24T09:51:11.788Z,50.89
2019-02-24T09:55:13.698Z,50.45
2019-02-24T09:59:15.640Z,50.86
2019-02-24T10:03:17.552Z,50.86
2019-02-24T10:07:19.438Z,49.71
2019-02-24T10:11:21.351Z,47.40
2019-02-24T10:15:23.262Z,47.86
2019-02-24T10:19:25.182Z,48.54
2019-02-24T10:23:27.257Z,48.69
2019-02-24T10:27:29.208Z,49.35
2019-02-24T10:31:31.114Z,47.49
2019-02-24T10:35:33.094Z,48.31
2019-02-24T10:39:35.015Z,46.19
2019-02-24T10:43:36.911Z,46.66
2019-02-24T10:47:38.863Z,45.08
2019-02-24T10:51:40.755Z,45.79
2019-02-24T10:55:42.670Z,44.03
2019-02-24T10:59:44.621Z,43.71
2019-02-24T11:03:46.519Z,44.28
2019-02-24T11:07:48.432Z,43.29
2019-02-24T11:11:50.337Z,42.14
2019-02-24T11:15:52.325Z,42.55
2019-02-24T11:19:54.311Z,40.10
2019-02-24T11:23:56.223Z,41.01
2019-02-24T11:27:58.258Z,39.85
2019-02-24T11:32:00.158Z,38.33
2019-02-24T11:36:02.099Z,37.95
2019-02-24T11:40:05.795Z,37.08
2019-02-24T11:44:07.713Z,36.85
2019-02-24T11:48:09.633Z,36.85
2019-02-24T11:52:11.525Z,37.23
2019-02-24T11:56:13.428Z,36.81
2019-02-24T22:54:29.874Z,65.51
2019-02-24T22:58:31.790Z,65.26
2019-02-24T23:02:34.079Z,65.83
2019-02-24T23:06:36.000Z,65.70
2019-02-24T23:10:38.879Z,65.96
2019-02-24T23:14:40.807Z,66.54
2019-02-24T23:18:42.739Z,66.23
2019-02-24T23:22:44.664Z,65.85
2019-02-24T23:26:46.625Z,66.09
2019-02-24T23:30:48.528Z,65.93
2019-02-24T23:34:51.422Z,66.52
2019-02-24T23:38:53.349Z,66.09
2019-02-24T23:42:56.340Z,66.93
2019-02-24T23:46:58.253Z,66.72
2019-02-24T23:51:00.171Z,66.80
2019-02-24T23:55:05.925Z,66.61
2019-02-24T23:59:08.691Z,66.68
